Celebrity Summit — 9HJC9 — position and weather

sailwx.info

Track history (hours):
 
Tides and Currents Weather Stations Pressure Air Temp Water Temp Dewpoint Dewpoint Depression Visibility Wind Speed Wind Dir Waves Ship Positions

Celebrity Summit

Last reported at 2018-Feb-22 06:00 UTC. Time now 2018-Feb-22 10:41 UTC.
Position N 19°12' W 067°12'.

Length 294 m; draft 8.3 m.

Type: Passenger vessel. MMSI: 249047000.

Wind from 070 at 28 knots

Barometer 1025.3 mb
Air temperature 25.3 ° C
Visibility: greater than 10.8 NM
Water temperature 26.7 ° C

Date/timePositionNaut miles runAvg speedWind from/ knotsBaromVisibWave heightAir tempDewpointWater temp
2018-Feb-22 06:00N 19°12' W 067°12'11619.3 070 / 281025.310.8 25.3 26.7
2018-Feb-22 00:00N 18°18' W 065°24'28 4.1 090 / 401022.0 25.0 27.0
2018-Feb-21 17:00N 18°18' W 064°54'31 3.1 070 / 301022.410.8 26.4 26.5
2018-Feb-21 07:00N 18°30' W 065°24'40 2.9 060 / 361019.410.8 25.3 26.3
2018-Feb-20 17:00N 18°24' W 066°06'73914.2 070 / 181022.510.8 28.0 26.0
2018-Feb-18 13:00N 25°00' W 077°18'13310.7 090 / 151025.0 26.0
2018-Feb-18 00:33N 26°13' W 079°21'314.6
2018-Feb-18 00:21N 26°12' W 079°25'514.7
2018-Feb-18 00:00N 26°12' W 079°30'815.0
2018-Feb-17 23:30N 26°10' W 079°38'815.1
2018-Feb-17 23:00N 26°09' W 079°47'815.1
2018-Feb-17 22:30N 26°07' W 079°55'715.0
2018-Feb-17 22:01N 26°06' W 080°03'4 7.2
2018-Feb-17 21:30N 26°05' W 080°07'0 0.0
2018-Feb-17 20:59N 26°05' W 080°07'0 0.0
2018-Feb-17 20:29N 26°05' W 080°07'0 0.0
2018-Feb-17 19:59N 26°05' W 080°07'0 0.0
2018-Feb-17 19:29N 26°05' W 080°07'0 0.0
2018-Feb-17 18:59N 26°05' W 080°07'0 0.0
2018-Feb-17 18:29N 26°05' W 080°07'0 0.0
2018-Feb-17 17:59N 26°05' W 080°07'0 0.0
2018-Feb-17 17:30N 26°05' W 080°07'0 0.0
2018-Feb-17 17:00N 26°05' W 080°07'0 0.0
2018-Feb-17 16:31N 26°05' W 080°07'0 0.0
2018-Feb-17 16:00N 26°05' W 080°07'0 0.0
2018-Feb-17 15:30N 26°05' W 080°07'0 0.0
2018-Feb-17 15:00N 26°05' W 080°07'0 0.0
2018-Feb-17 14:30N 26°05' W 080°07'0 0.0
2018-Feb-17 14:00N 26°05' W 080°07'0 0.0
2018-Feb-17 13:30N 26°05' W 080°07'0 0.0
2018-Feb-17 13:00N 26°05' W 080°07'0 0.0
2018-Feb-17 12:30N 26°05' W 080°07'0 0.0
2018-Feb-17 12:00N 26°05' W 080°07'0 0.0
2018-Feb-17 11:30N 26°05' W 080°07'0 0.0
2018-Feb-17 11:00N 26°05' W 080°07'0 0.0
2018-Feb-17 10:31N 26°05' W 080°07'1 2.6
2018-Feb-17 10:00N 26°06' W 080°06'510.5
2018-Feb-17 09:31N 26°06' W 079°60'611.5
2018-Feb-17 09:01N 26°07' W 079°54'611.6
2018-Feb-17 08:30N 26°08' W 079°47'611.6
2018-Feb-17 08:00N 26°10' W 079°41'611.6
2018-Feb-17 07:30N 26°11' W 079°34'611.8
2018-Feb-17 07:00N 26°12' W 079°28'611.7
2018-Feb-17 06:29N 26°14' W 079°22'9 0.4
2018-Feb-16 09:38N 26°05' W 079°20'320.3
2018-Feb-16 09:29N 26°02' W 079°21'1020.6
2018-Feb-16 09:00N 25°53' W 079°25'1121.1
2018-Feb-16 08:30N 25°43' W 079°28'1121.1
2018-Feb-16 07:58N 25°32' W 079°32'2020.7
2018-Feb-16 07:00N 25°12' W 079°36'   140 / 151022.810.8 23.4 24.3
2018-Feb-14 01:52N 20°22' W 087°04'616.7
2018-Feb-14 01:30N 20°27' W 087°02'3 6.1
2018-Feb-14 00:58N 20°29' W 086°59'0 0.0
2018-Feb-14 00:28N 20°29' W 086°59'0 0.0
2018-Feb-13 23:58N 20°29' W 086°59'0 0.0
2018-Feb-13 23:28N 20°29' W 086°59'0 0.0
2018-Feb-13 22:58N 20°29' W 086°59'0 0.0
2018-Feb-13 22:28N 20°29' W 086°59'0 0.0
2018-Feb-13 21:58N 20°29' W 086°59'0 0.0
2018-Feb-13 21:28N 20°29' W 086°59'0 0.0
2018-Feb-13 20:58N 20°29' W 086°59'0 0.0
2018-Feb-13 20:28N 20°29' W 086°59'0 0.0
2018-Feb-13 19:58N 20°29' W 086°59'0 0.0
2018-Feb-13 19:28N 20°29' W 086°59'0 0.0
2018-Feb-13 18:58N 20°29' W 086°59'0 0.0
2018-Feb-13 18:25N 20°29' W 086°59'0 0.0
2018-Feb-13 17:58N 20°29' W 086°59'0 0.0
2018-Feb-13 17:28N 20°29' W 086°59'0 0.0
2018-Feb-13 16:55N 20°29' W 086°59'0 0.0
2018-Feb-13 16:28N 20°29' W 086°59'0 0.0
2018-Feb-13 15:55N 20°29' W 086°59'0 0.0
2018-Feb-13 15:28N 20°29' W 086°59'0 0.0
2018-Feb-13 14:58N 20°29' W 086°59'0 0.0
2018-Feb-13 14:28N 20°29' W 086°59'0 0.0
2018-Feb-13 13:58N 20°29' W 086°59'0 0.0
2018-Feb-13 13:28N 20°29' W 086°59'0 0.0
2018-Feb-13 12:58N 20°29' W 086°59'0 0.0
2018-Feb-13 12:30N 20°29' W 086°59'1 1.2
2018-Feb-13 12:01N 20°29' W 086°59'3 5.8
2018-Feb-13 11:30N 20°30' W 087°02'5 7.4
2018-Feb-13 10:52N 20°25' W 087°04'  
Track history (hours):
 
Tides and Currents Weather Stations Pressure Air Temp Water Temp Dewpoint Dewpoint Depression Visibility Wind Speed Wind Dir Waves Ship Positions

Celebrity Summit

Last reported at 2018-Feb-22 06:00 UTC. Time now 2018-Feb-22 10:41 UTC.
Position N 19°12' W 067°12'.

Length 294 m; draft 8.3 m.

Type: Passenger vessel. MMSI: 249047000.

Wind from 070 at 28 knots

Barometer 1025.3 mb
Air temperature 25.3 ° C
Visibility: greater than 10.8 NM
Water temperature 26.7 ° C

Date/timePositionNaut miles runAvg speedWind from/ knotsBaromVisibWave heightAir tempDewpointWater temp
2018-Feb-22 06:00N 19°12' W 067°12'11619.3 070 / 281025.310.8 25.3 26.7
2018-Feb-22 00:00N 18°18' W 065°24'28 4.1 090 / 401022.0 25.0 27.0
2018-Feb-21 17:00N 18°18' W 064°54'31 3.1 070 / 301022.410.8 26.4 26.5
2018-Feb-21 07:00N 18°30' W 065°24'40 2.9 060 / 361019.410.8 25.3 26.3
2018-Feb-20 17:00N 18°24' W 066°06'73914.2 070 / 181022.510.8 28.0 26.0
2018-Feb-18 13:00N 25°00' W 077°18'13310.7 090 / 151025.0 26.0
2018-Feb-18 00:33N 26°13' W 079°21'314.6
2018-Feb-18 00:21N 26°12' W 079°25'514.7
2018-Feb-18 00:00N 26°12' W 079°30'815.0
2018-Feb-17 23:30N 26°10' W 079°38'815.1
2018-Feb-17 23:00N 26°09' W 079°47'815.1
2018-Feb-17 22:30N 26°07' W 079°55'715.0
2018-Feb-17 22:01N 26°06' W 080°03'4 7.2
2018-Feb-17 21:30N 26°05' W 080°07'0 0.0
2018-Feb-17 20:59N 26°05' W 080°07'0 0.0
2018-Feb-17 20:29N 26°05' W 080°07'0 0.0
2018-Feb-17 19:59N 26°05' W 080°07'0 0.0
2018-Feb-17 19:29N 26°05' W 080°07'0 0.0
2018-Feb-17 18:59N 26°05' W 080°07'0 0.0
2018-Feb-17 18:29N 26°05' W 080°07'0 0.0
2018-Feb-17 17:59N 26°05' W 080°07'0 0.0
2018-Feb-17 17:30N 26°05' W 080°07'0 0.0
2018-Feb-17 17:00N 26°05' W 080°07'0 0.0
2018-Feb-17 16:31N 26°05' W 080°07'0 0.0
2018-Feb-17 16:00N 26°05' W 080°07'0 0.0
2018-Feb-17 15:30N 26°05' W 080°07'0 0.0
2018-Feb-17 15:00N 26°05' W 080°07'0 0.0
2018-Feb-17 14:30N 26°05' W 080°07'0 0.0
2018-Feb-17 14:00N 26°05' W 080°07'0 0.0
2018-Feb-17 13:30N 26°05' W 080°07'0 0.0
2018-Feb-17 13:00N 26°05' W 080°07'0 0.0
2018-Feb-17 12:30N 26°05' W 080°07'0 0.0
2018-Feb-17 12:00N 26°05' W 080°07'0 0.0
2018-Feb-17 11:30N 26°05' W 080°07'0 0.0
2018-Feb-17 11:00N 26°05' W 080°07'0 0.0
2018-Feb-17 10:31N 26°05' W 080°07'1 2.6
2018-Feb-17 10:00N 26°06' W 080°06'510.5
2018-Feb-17 09:31N 26°06' W 079°60'611.5
2018-Feb-17 09:01N 26°07' W 079°54'611.6
2018-Feb-17 08:30N 26°08' W 079°47'611.6
2018-Feb-17 08:00N 26°10' W 079°41'611.6
2018-Feb-17 07:30N 26°11' W 079°34'611.8
2018-Feb-17 07:00N 26°12' W 079°28'611.7
2018-Feb-17 06:29N 26°14' W 079°22'9 0.4
2018-Feb-16 09:38N 26°05' W 079°20'320.3
2018-Feb-16 09:29N 26°02' W 079°21'1020.6
2018-Feb-16 09:00N 25°53' W 079°25'1121.1
2018-Feb-16 08:30N 25°43' W 079°28'1121.1
2018-Feb-16 07:58N 25°32' W 079°32'2020.7
2018-Feb-16 07:00N 25°12' W 079°36'   140 / 151022.810.8 23.4 24.3
2018-Feb-14 01:52N 20°22' W 087°04'616.7
2018-Feb-14 01:30N 20°27' W 087°02'3 6.1
2018-Feb-14 00:58N 20°29' W 086°59'0 0.0
2018-Feb-14 00:28N 20°29' W 086°59'0 0.0
2018-Feb-13 23:58N 20°29' W 086°59'0 0.0
2018-Feb-13 23:28N 20°29' W 086°59'0 0.0
2018-Feb-13 22:58N 20°29' W 086°59'0 0.0
2018-Feb-13 22:28N 20°29' W 086°59'0 0.0
2018-Feb-13 21:58N 20°29' W 086°59'0 0.0
2018-Feb-13 21:28N 20°29' W 086°59'0 0.0
2018-Feb-13 20:58N 20°29' W 086°59'0 0.0
2018-Feb-13 20:28N 20°29' W 086°59'0 0.0
2018-Feb-13 19:58N 20°29' W 086°59'0 0.0
2018-Feb-13 19:28N 20°29' W 086°59'0 0.0
2018-Feb-13 18:58N 20°29' W 086°59'0 0.0
2018-Feb-13 18:25N 20°29' W 086°59'0 0.0
2018-Feb-13 17:58N 20°29' W 086°59'0 0.0
2018-Feb-13 17:28N 20°29' W 086°59'0 0.0
2018-Feb-13 16:55N 20°29' W 086°59'0 0.0
2018-Feb-13 16:28N 20°29' W 086°59'0 0.0
2018-Feb-13 15:55N 20°29' W 086°59'0 0.0
2018-Feb-13 15:28N 20°29' W 086°59'0 0.0
2018-Feb-13 14:58N 20°29' W 086°59'0 0.0
2018-Feb-13 14:28N 20°29' W 086°59'0 0.0
2018-Feb-13 13:58N 20°29' W 086°59'0 0.0
2018-Feb-13 13:28N 20°29' W 086°59'0 0.0
2018-Feb-13 12:58N 20°29' W 086°59'0 0.0
2018-Feb-13 12:30N 20°29' W 086°59'1 1.2
2018-Feb-13 12:01N 20°29' W 086°59'3 5.8
2018-Feb-13 11:30N 20°30' W 087°02'5 7.4
2018-Feb-13 10:52N 20°25' W 087°04'  

Dump ship's entire track history